sensor_id;sensor_type;location;lat;lon;timestamp;pressure;altitude;pressure_sealevel;temperature;humidity
50356;BME280;36264;51.296;-0.602;2023-04-01T00:00:30;99597.06;;;15.52;100.00
50356;BME280;36264;51.296;-0.602;2023-04-01T00:02:56;99607.50;;;15.78;100.00
50356;BME280;36264;51.296;-0.602;2023-04-01T00:05:22;99616.16;;;15.65;100.00
50356;BME280;36264;51.296;-0.602;2023-04-01T00:07:49;99614.31;;;15.80;100.00
50356;BME280;36264;51.296;-0.602;2023-04-01T00:10:15;99610.81;;;15.92;100.00
50356;BME280;36264;51.296;-0.602;2023-04-01T00:12:40;99613.28;;;16.07;100.00
50356;BME280;36264;51.296;-0.602;2023-04-01T00:15:08;99623.97;;;16.28;100.00
50356;BME280;36264;51.296;-0.602;2023-04-01T00:17:33;99624.44;;;15.85;100.00
50356;BME280;36264;51.296;-0.602;2023-04-01T00:19:59;99633.47;;;15.81;100.00
50356;BME280;36264;51.296;-0.602;2023-04-01T00:22:25;99633.06;;;15.61;100.00
50356;BME280;36264;51.296;-0.602;2023-04-01T00:24:51;99643.75;;;15.32;100.00
50356;BME280;36264;51.296;-0.602;2023-04-01T00:27:17;99652.94;;;15.25;100.00
50356;BME280;36264;51.296;-0.602;2023-04-01T00:29:43;99644.47;;;15.60;100.00
50356;BME280;36264;51.296;-0.602;2023-04-01T00:32:09;99652.13;;;15.37;100.00
50356;BME280;36264;51.296;-0.602;2023-04-01T00:34:35;99655.06;;;15.33;100.00
50356;BME280;36264;51.296;-0.602;2023-04-01T00:37:00;99658.59;;;15.19;100.00
50356;BME280;36264;51.296;-0.602;2023-04-01T00:39:29;99663.06;;;15.68;100.00
50356;BME280;36264;51.296;-0.602;2023-04-01T00:41:54;99661.09;;;15.46;100.00
50356;BME280;36264;51.296;-0.602;2023-04-01T00:44:27;99668.44;;;15.54;100.00
50356;BME280;36264;51.296;-0.602;2023-04-01T00:46:53;99673.47;;;15.44;100.00
50356;BME280;36264;51.296;-0.602;2023-04-01T00:49:21;99672.31;;;15.61;100.00
50356;BME280;36264;51.296;-0.602;2023-04-01T00:51:50;99657.53;;;15.60;100.00
50356;BME280;36264;51.296;-0.602;2023-04-01T00:54:19;99675.03;;;15.85;100.00
50356;BME280;36264;51.296;-0.602;2023-04-01T00:56:54;99671.16;;;15.91;100.00
50356;BME280;36264;51.296;-0.602;2023-04-01T00:59:27;99677.81;;;15.95;100.00
50356;BME280;36264;51.296;-0.602;2023-04-01T01:01:54;99677.03;;;15.69;100.00
50356;BME280;36264;51.296;-0.602;2023-04-01T01:04:28;99675.19;;;16.08;100.00
50356;BME280;36264;51.296;-0.602;2023-04-01T01:12:41;99681.53;;;15.41;100.00
50356;BME280;36264;51.296;-0.602;2023-04-01T01:20:36;99689.25;;;15.68;100.00
50356;BME280;36264;51.296;-0.602;2023-04-01T01:31:25;99700.28;;;15.61;100.00
50356;BME280;36264;51.296;-0.602;2023-04-01T01:36:42;99702.88;;;15.73;100.00
50356;BME280;36264;51.296;-0.602;2023-04-01T01:39:11;99717.53;;;15.76;100.00
50356;BME280;36264;51.296;-0.602;2023-04-01T01:41:39;99705.81;;;15.69;100.00
50356;BME280;36264;51.296;-0.602;2023-04-01T01:44:08;99717.44;;;15.65;100.00
50356;BME280;36264;51.296;-0.602;2023-04-01T01:46:37;99719.00;;;15.67;100.00
50356;BME280;36264;51.296;-0.602;2023-04-01T01:49:05;99722.97;;;15.60;100.00
50356;BME280;36264;51.296;-0.602;2023-04-01T01:51:32;99726.31;;;15.49;100.00
50356;BME280;36264;51.296;-0.602;2023-04-01T01:53:58;99724.75;;;15.47;100.00
50356;BME280;36264;51.296;-0.602;2023-04-01T01:56:26;99726.88;;;15.67;100.00
50356;BME280;36264;51.296;-0.602;2023-04-01T01:58:56;99740.16;;;15.64;100.00
50356;BME280;36264;51.296;-0.602;2023-04-01T02:01:27;99734.84;;;15.79;100.00
50356;BME280;36264;51.296;-0.602;2023-04-01T02:03:55;99745.59;;;15.61;100.00
50356;BME280;36264;51.296;-0.602;2023-04-01T02:06:23;99734.75;;;15.80;100.00
50356;BME280;36264;51.296;-0.602;2023-04-01T02:08:56;99748.53;;;15.69;100.00
50356;BME280;36264;51.296;-0.602;2023-04-01T02:11:45;99744.03;;;15.84;100.00
50356;BME280;36264;51.296;-0.602;2023-04-01T02:14:23;99750.25;;;15.83;100.00
50356;BME280;36264;51.296;-0.602;2023-04-01T02:16:57;99751.88;;;15.84;100.00
50356;BME280;36264;51.296;-0.602;2023-04-01T02:19:31;99750.53;;;15.91;100.00
50356;BME280;36264;51.296;-0.602;2023-04-01T02:22:01;99751.78;;;15.86;100.00
50356;BME280;36264;51.296;-0.602;2023-04-01T02:24:30;99755.06;;;15.89;100.00
50356;BME280;36264;51.296;-0.602;2023-04-01T02:26:56;99755.75;;;15.66;100.00
50356;BME280;36264;51.296;-0.602;2023-04-01T02:29:23;99756.09;;;15.87;100.00
50356;BME280;36264;51.296;-0.602;2023-04-01T02:31:51;99761.84;;;15.92;100.00
50356;BME280;36264;51.296;-0.602;2023-04-01T02:34:18;99762.81;;;15.78;100.00
50356;BME280;36264;51.296;-0.602;2023-04-01T02:36:43;99761.91;;;15.52;100.00
50356;BME280;36264;51.296;-0.602;2023-04-01T02:39:09;99767.06;;;15.66;100.00
50356;BME280;36264;51.296;-0.602;2023-04-01T02:41:42;99768.16;;;15.77;100.00
50356;BME280;36264;51.296;-0.602;2023-04-01T02:44:10;99772.50;;;15.76;100.00
50356;BME280;36264;51.296;-0.602;2023-04-01T02:46:36;99773.97;;;15.67;100.00
50356;BME280;36264;51.296;-0.602;2023-04-01T02:49:02;99765.16;;;15.68;100.00
50356;BME280;36264;51.296;-0.602;2023-04-01T02:51:27;99771.97;;;15.71;100.00
50356;BME280;36264;51.296;-0.602;2023-04-01T02:53:53;99775.00;;;15.65;100.00
50356;BME280;36264;51.296;-0.602;2023-04-01T02:56:18;99768.16;;;15.77;99.98
50356;BME280;36264;51.296;-0.602;2023-04-01T02:58:45;99767.28;;;15.89;99.37
50356;BME280;36264;51.296;-0.602;2023-04-01T03:01:10;99767.94;;;15.80;98.94
50356;BME280;36264;51.296;-0.602;2023-04-01T03:03:36;99788.66;;;15.83;98.97
50356;BME280;36264;51.296;-0.602;2023-04-01T03:06:09;99776.00;;;15.77;100.00
50356;BME280;36264;51.296;-0.602;2023-04-01T03:08:35;99789.97;;;15.50;100.00
50356;BME280;36264;51.296;-0.602;2023-04-01T03:11:00;99788.41;;;15.47;100.00
50356;BME280;36264;51.296;-0.602;2023-04-01T03:13:26;99791.34;;;15.55;100.00
50356;BME280;36264;51.296;-0.602;2023-04-01T03:15:52;99787.69;;;15.71;100.00
50356;BME280;36264;51.296;-0.602;2023-04-01T03:18:18;99790.81;;;15.76;99.68
50356;BME280;36264;51.296;-0.602;2023-04-01T03:20:43;99799.09;;;15.70;99.80
50356;BME280;36264;51.296;-0.602;2023-04-01T03:23:09;99793.03;;;15.69;99.56
50356;BME280;36264;51.296;-0.602;2023-04-01T03:25:34;99797.75;;;15.64;100.00
50356;BME280;36264;51.296;-0.602;2023-04-01T03:27:59;99795.53;;;15.58;100.00
50356;BME280;36264;51.296;-0.602;2023-04-01T03:30:25;99802.00;;;15.65;100.00
50356;BME280;36264;51.296;-0.602;2023-04-01T03:32:51;99807.59;;;15.61;100.00
50356;BME280;36264;51.296;-0.602;2023-04-01T03:35:17;99820.53;;;15.62;100.00
50356;BME280;36264;51.296;-0.602;2023-04-01T03:37:43;99807.25;;;15.52;100.00
50356;BME280;36264;51.296;-0.602;2023-04-01T03:40:09;99809.47;;;15.71;100.00
50356;BME280;36264;51.296;-0.602;2023-04-01T03:42:35;99809.53;;;15.57;100.00
50356;BME280;36264;51.296;-0.602;2023-04-01T03:45:00;99812.38;;;15.67;100.00
50356;BME280;36264;51.296;-0.602;2023-04-01T03:47:26;99817.19;;;15.60;100.00
50356;BME280;36264;51.296;-0.602;2023-04-01T03:49:51;99816.53;;;15.84;98.90
50356;BME280;36264;51.296;-0.602;2023-04-01T03:52:17;99817.44;;;15.83;98.18
50356;BME280;36264;51.296;-0.602;2023-04-01T03:54:42;99824.03;;;15.75;98.14
50356;BME280;36264;51.296;-0.602;2023-04-01T03:57:07;99824.44;;;15.69;98.90
50356;BME280;36264;51.296;-0.602;2023-04-01T03:59:33;99825.75;;;15.89;97.73
50356;BME280;36264;51.296;-0.602;2023-04-01T04:01:58;99819.97;;;15.84;97.78
50356;BME280;36264;51.296;-0.602;2023-04-01T04:04:24;99831.59;;;15.80;97.33
50356;BME280;36264;51.296;-0.602;2023-04-01T04:06:49;99835.41;;;15.49;100.00
50356;BME280;36264;51.296;-0.602;2023-04-01T04:09:16;99837.88;;;15.78;98.15
50356;BME280;36264;51.296;-0.602;2023-04-01T04:11:41;99839.47;;;15.80;97.56
50356;BME280;36264;51.296;-0.602;2023-04-01T04:14:06;99845.78;;;15.63;98.38
50356;BME280;36264;51.296;-0.602;2023-04-01T04:16:35;99847.84;;;15.98;98.66
50356;BME280;36264;51.296;-0.602;2023-04-01T04:19:02;99849.09;;;15.80;98.57
50356;BME280;36264;51.296;-0.602;2023-04-01T04:21:27;99849.22;;;15.78;98.24
50356;BME280;36264;51.296;-0.602;2023-04-01T04:23:53;99852.31;;;15.70;97.82
50356;BME280;36264;51.296;-0.602;2023-04-01T04:26:18;99851.53;;;15.68;98.27
50356;BME280;36264;51.296;-0.602;2023-04-01T04:28:44;99859.47;;;15.54;99.10
50356;BME280;36264;51.296;-0.602;2023-04-01T04:31:09;99864.59;;;15.43;99.67
50356;BME280;36264;51.296;-0.602;2023-04-01T04:33:35;99862.09;;;15.54;99.89
50356;BME280;36264;51.296;-0.602;2023-04-01T04:36:01;99867.94;;;15.45;100.00
50356;BME280;36264;51.296;-0.602;2023-04-01T04:38:28;99861.38;;;15.52;100.00
50356;BME280;36264;51.296;-0.602;2023-04-01T04:40:53;99860.84;;;15.47;100.00
50356;BME280;36264;51.296;-0.602;2023-04-01T04:43:19;99871.09;;;15.50;100.00
50356;BME280;36264;51.296;-0.602;2023-04-01T04:45:45;99874.84;;;15.46;99.96
50356;BME280;36264;51.296;-0.602;2023-04-01T04:48:15;99879.56;;;15.81;99.06
50356;BME280;36264;51.296;-0.602;2023-04-01T04:50:46;99871.47;;;15.71;98.62
50356;BME280;36264;51.296;-0.602;2023-04-01T04:53:13;99875.75;;;15.59;98.49
50356;BME280;36264;51.296;-0.602;2023-04-01T04:55:43;99879.78;;;16.03;96.08
50356;BME280;36264;51.296;-0.602;2023-04-01T04:58:09;99887.94;;;15.86;96.46
50356;BME280;36264;51.296;-0.602;2023-04-01T05:00:35;99888.81;;;15.99;95.19
50356;BME280;36264;51.296;-0.602;2023-04-01T05:03:00;99892.56;;;15.95;94.58
50356;BME280;36264;51.296;-0.602;2023-04-01T05:05:26;99889.44;;;15.90;94.20
50356;BME280;36264;51.296;-0.602;2023-04-01T05:07:51;99898.09;;;15.78;94.46
50356;BME280;36264;51.296;-0.602;2023-04-01T05:10:16;99901.81;;;16.01;93.62
50356;BME280;36264;51.296;-0.602;2023-04-01T05:12:42;99899.69;;;15.93;94.55
50356;BME280;36264;51.296;-0.602;2023-04-01T05:15:08;99905.47;;;15.98;94.71
50356;BME280;36264;51.296;-0.602;2023-04-01T05:17:34;99911.72;;;15.83;95.52
50356;BME280;36264;51.296;-0.602;2023-04-01T05:19:59;99909.53;;;15.77;95.33
50356;BME280;36264;51.296;-0.602;2023-04-01T05:22:25;99910.19;;;15.93;94.33
50356;BME280;36264;51.296;-0.602;2023-04-01T05:24:50;99912.81;;;16.06;93.91
50356;BME280;36264;51.296;-0.602;2023-04-01T05:27:16;99919.25;;;15.87;93.80
50356;BME280;36264;51.296;-0.602;2023-04-01T05:29:41;99927.47;;;15.68;96.09
50356;BME280;36264;51.296;-0.602;2023-04-01T05:32:07;99929.34;;;15.66;96.77
50356;BME280;36264;51.296;-0.602;2023-04-01T05:34:32;99929.25;;;15.68;96.72
50356;BME280;36264;51.296;-0.602;2023-04-01T05:36:57;99929.88;;;15.71;95.88
50356;BME280;36264;51.296;-0.602;2023-04-01T05:39:23;99931.03;;;15.67;96.17
50356;BME280;36264;51.296;-0.602;2023-04-01T05:41:49;99930.75;;;15.72;96.42
50356;BME280;36264;51.296;-0.602;2023-04-01T05:44:14;99942.41;;;15.81;95.97
50356;BME280;36264;51.296;-0.602;2023-04-01T05:46:39;99941.28;;;15.85;96.07
50356;BME280;36264;51.296;-0.602;2023-04-01T05:49:05;99945.06;;;15.93;95.54
50356;BME280;36264;51.296;-0.602;2023-04-01T05:51:30;99947.88;;;15.90;95.70
50356;BME280;36264;51.296;-0.602;2023-04-01T05:53:55;99944.03;;;16.60;91.41
50356;BME280;36264;51.296;-0.602;2023-04-01T05:56:21;99953.38;;;16.77;89.13
50356;BME280;36264;51.296;-0.602;2023-04-01T05:58:51;99949.72;;;16.93;89.74
50356;BME280;36264;51.296;-0.602;2023-04-01T06:01:16;99953.81;;;16.33;90.65
50356;BME280;36264;51.296;-0.602;2023-04-01T06:03:43;99963.22;;;16.22;92.15
50356;BME280;36264;51.296;-0.602;2023-04-01T06:06:13;99962.84;;;16.54;92.42
50356;BME280;36264;51.296;-0.602;2023-04-01T06:08:41;99965.88;;;16.35;92.37
50356;BME280;36264;51.296;-0.602;2023-04-01T06:11:19;99968.19;;;16.65;91.82
50356;BME280;36264;51.296;-0.602;2023-04-01T06:33:02;99988.44;;;16.89;89.88
50356;BME280;36264;51.296;-0.602;2023-04-01T06:38:27;99994.50;;;16.77;89.70
50356;BME280;36264;51.296;-0.602;2023-04-01T06:41:11;99994.53;;;16.90;89.41
50356;BME280;36264;51.296;-0.602;2023-04-01T06:49:11;100007.63;;;16.77;87.52
50356;BME280;36264;51.296;-0.602;2023-04-01T06:54:42;100020.31;;;16.96;85.33
50356;BME280;36264;51.296;-0.602;2023-04-01T06:57:29;100021.75;;;16.74;85.62
50356;BME280;36264;51.296;-0.602;2023-04-01T06:59:57;100025.09;;;16.51;88.24
50356;BME280;36264;51.296;-0.602;2023-04-01T07:02:33;100032.03;;;16.52;87.20
50356;BME280;36264;51.296;-0.602;2023-04-01T07:05:02;100037.03;;;16.29;88.65
50356;BME280;36264;51.296;-0.602;2023-04-01T07:07:39;100037.38;;;16.76;87.48
50356;BME280;36264;51.296;-0.602;2023-04-01T07:10:17;100042.13;;;16.83;85.93
50356;BME280;36264;51.296;-0.602;2023-04-01T07:12:50;100049.56;;;16.77;87.01
50356;BME280;36264;51.296;-0.602;2023-04-01T07:15:43;100046.03;;;16.91;86.43
50356;BME280;36264;51.296;-0.602;2023-04-01T07:18:22;100049.56;;;16.77;86.12
50356;BME280;36264;51.296;-0.602;2023-04-01T07:20:51;100054.72;;;16.78;86.83
50356;BME280;36264;51.296;-0.602;2023-04-01T07:23:32;100058.31;;;16.90;86.58
50356;BME280;36264;51.296;-0.602;2023-04-01T07:26:04;100064.41;;;16.91;86.15
50356;BME280;36264;51.296;-0.602;2023-04-01T07:28:32;100066.56;;;16.18;88.51
50356;BME280;36264;51.296;-0.602;2023-04-01T07:33:58;100068.88;;;16.23;92.80
50356;BME280;36264;51.296;-0.602;2023-04-01T07:36:42;100079.78;;;16.29;92.73
50356;BME280;36264;51.296;-0.602;2023-04-01T07:42:30;100077.38;;;16.26;92.68
50356;BME280;36264;51.296;-0.602;2023-04-01T07:48:09;100086.28;;;16.37;92.48
50356;BME280;36264;51.296;-0.602;2023-04-01T07:56:06;100097.56;;;16.11;93.37
50356;BME280;36264;51.296;-0.602;2023-04-01T08:01:35;100112.31;;;16.40;92.11
50356;BME280;36264;51.296;-0.602;2023-04-01T08:07:08;100117.66;;;16.38;91.42
50356;BME280;36264;51.296;-0.602;2023-04-01T08:18:01;100132.69;;;15.94;92.64
50356;BME280;36264;51.296;-0.602;2023-04-01T08:20:58;100129.03;;;16.52;90.68
50356;BME280;36264;51.296;-0.602;2023-04-01T08:23:30;100135.69;;;16.70;89.84
50356;BME280;36264;51.296;-0.602;2023-04-01T08:26:08;100131.78;;;16.76;89.03
50356;BME280;36264;51.296;-0.602;2023-04-01T08:28:54;100139.75;;;16.74;89.21
50356;BME280;36264;51.296;-0.602;2023-04-01T08:31:41;100146.19;;;16.83;88.72
50356;BME280;36264;51.296;-0.602;2023-04-01T08:34:16;100150.25;;;16.74;87.55
50356;BME280;36264;51.296;-0.602;2023-04-01T08:36:50;100154.38;;;16.78;86.92
50356;BME280;36264;51.296;-0.602;2023-04-01T08:39:29;100160.44;;;16.79;87.54
50356;BME280;36264;51.296;-0.602;2023-04-01T08:49:49;100166.63;;;17.18;83.06
50356;BME280;36264;51.296;-0.602;2023-04-01T08:52:37;100172.28;;;17.25;84.89
50356;BME280;36264;51.296;-0.602;2023-04-01T08:58:17;100176.03;;;17.20;85.07
50356;BME280;36264;51.296;-0.602;2023-04-01T09:04:07;100186.31;;;16.98;85.94
50356;BME280;36264;51.296;-0.602;2023-04-01T09:06:55;100186.53;;;16.95;87.50
50356;BME280;36264;51.296;-0.602;2023-04-01T09:12:19;100188.75;;;17.01;86.11
50356;BME280;36264;51.296;-0.602;2023-04-01T09:30:04;100219.16;;;15.35;100.00
50356;BME280;36264;51.296;-0.602;2023-04-01T09:33:36;100222.53;;;15.37;100.00
50356;BME280;36264;51.296;-0.602;2023-04-01T09:38:29;100229.53;;;15.37;100.00
50356;BME280;36264;51.296;-0.602;2023-04-01T09:54:41;100246.47;;;15.60;98.01
50356;BME280;36264;51.296;-0.602;2023-04-01T10:00:03;100252.41;;;15.33;100.00
50356;BME280;36264;51.296;-0.602;2023-04-01T10:08:34;100261.63;;;15.55;99.40
50356;BME280;36264;51.296;-0.602;2023-04-01T10:16:43;100279.00;;;15.56;97.73
50356;BME280;36264;51.296;-0.602;2023-04-01T10:19:44;100283.28;;;15.43;95.29
50356;BME280;36264;51.296;-0.602;2023-04-01T10:36:07;100298.59;;;15.93;98.54
50356;BME280;36264;51.296;-0.602;2023-04-01T10:47:02;100318.47;;;16.12;95.08
50356;BME280;36264;51.296;-0.602;2023-04-01T10:55:23;100318.72;;;16.22;94.82
50356;BME280;36264;51.296;-0.602;2023-04-01T11:25:50;100335.59;;;16.74;92.38
50356;BME280;36264;51.296;-0.602;2023-04-01T11:31:17;100350.41;;;16.89;89.88
50356;BME280;36264;51.296;-0.602;2023-04-01T11:34:13;100356.00;;;16.83;90.29
50356;BME280;36264;51.296;-0.602;2023-04-01T11:45:30;100364.81;;;17.24;86.54
50356;BME280;36264;51.296;-0.602;2023-04-01T11:59:41;100378.78;;;17.24;82.86
50356;BME280;36264;51.296;-0.602;2023-04-01T12:46:13;100457.16;;;15.05;100.00
50356;BME280;36264;51.296;-0.602;2023-04-01T12:59:38;100479.13;;;15.34;100.00
50356;BME280;36264;51.296;-0.602;2023-04-01T13:02:20;100481.91;;;15.31;100.00
50356;BME280;36264;51.296;-0.602;2023-04-01T13:05:15;100474.41;;;15.25;99.65
50356;BME280;36264;51.296;-0.602;2023-04-01T13:11:08;100485.19;;;15.51;100.00
50356;BME280;36264;51.296;-0.602;2023-04-01T13:14:00;100484.09;;;15.71;100.00
50356;BME280;36264;51.296;-0.602;2023-04-01T13:16:35;100486.97;;;15.82;100.00
50356;BME280;36264;51.296;-0.602;2023-04-01T13:19:09;100490.78;;;15.77;94.49
50356;BME280;36264;51.296;-0.602;2023-04-01T13:37:11;100526.75;;;15.41;93.99
50356;BME280;36264;51.296;-0.602;2023-04-01T13:45:02;100528.09;;;15.64;94.72
50356;BME280;36264;51.296;-0.602;2023-04-01T13:52:54;100547.34;;;15.47;90.02
50356;BME280;36264;51.296;-0.602;2023-04-01T14:03:43;100558.81;;;15.45;95.30
50356;BME280;36264;51.296;-0.602;2023-04-01T14:16:55;100578.72;;;15.31;89.49
50356;BME280;36264;51.296;-0.602;2023-04-01T14:19:50;100585.34;;;14.88;90.93
50356;BME280;36264;51.296;-0.602;2023-04-01T14:50:18;100631.34;;;15.09;96.19
50356;BME280;36264;51.296;-0.602;2023-04-01T14:55:32;100635.47;;;15.31;94.61
50356;BME280;36264;51.296;-0.602;2023-04-01T14:58:19;100646.03;;;15.45;91.56
50356;BME280;36264;51.296;-0.602;2023-04-01T15:01:10;100642.56;;;15.45;89.72
50356;BME280;36264;51.296;-0.602;2023-04-01T15:11:54;100658.84;;;15.00;90.92
50356;BME280;36264;51.296;-0.602;2023-04-01T15:14:33;100666.97;;;14.94;93.50
50356;BME280;36264;51.296;-0.602;2023-04-01T15:33:45;100702.72;;;14.76;89.39
50356;BME280;36264;51.296;-0.602;2023-04-01T15:39:13;100705.91;;;15.00;88.16
50356;BME280;36264;51.296;-0.602;2023-04-01T15:44:49;100714.22;;;14.91;89.17
50356;BME280;36264;51.296;-0.602;2023-04-01T15:47:28;100722.75;;;14.95;88.27
50356;BME280;36264;51.296;-0.602;2023-04-01T15:50:20;100728.34;;;15.04;87.74
50356;BME280;36264;51.296;-0.602;2023-04-01T15:53:18;100721.91;;;15.12;89.62
50356;BME280;36264;51.296;-0.602;2023-04-01T15:58:36;100724.06;;;15.21;89.38
50356;BME280;36264;51.296;-0.602;2023-04-01T16:03:55;100732.66;;;15.23;86.21
50356;BME280;36264;51.296;-0.602;2023-04-01T16:22:13;100775.53;;;15.20;84.62
50356;BME280;36264;51.296;-0.602;2023-04-01T16:28:03;100787.59;;;15.06;83.72
50356;BME280;36264;51.296;-0.602;2023-04-01T16:30:40;100785.91;;;15.04;86.17
50356;BME280;36264;51.296;-0.602;2023-04-01T16:36:21;100793.94;;;14.82;84.50
50356;BME280;36264;51.296;-0.602;2023-04-01T16:39:08;100800.13;;;14.99;85.61
50356;BME280;36264;51.296;-0.602;2023-04-01T16:41:41;100801.34;;;14.92;85.40
50356;BME280;36264;51.296;-0.602;2023-04-01T16:44:18;100812.25;;;14.82;86.12
50356;BME280;36264;51.296;-0.602;2023-04-01T16:47:11;100816.59;;;15.01;83.17
50356;BME280;36264;51.296;-0.602;2023-04-01T16:57:19;100834.81;;;17.96;92.86
50356;BME280;36264;51.296;-0.602;2023-04-01T17:02:27;100832.03;;;18.96;83.95
50356;BME280;36264;51.296;-0.602;2023-04-01T17:07:55;100850.66;;;18.79;77.06
50356;BME280;36264;51.296;-0.602;2023-04-01T17:13:37;100855.38;;;21.55;68.45
50356;BME280;36264;51.296;-0.602;2023-04-01T17:30:38;100888.22;;;21.15;63.51
50356;BME280;36264;51.296;-0.602;2023-04-01T17:33:20;100888.38;;;21.01;63.32
50356;BME280;36264;51.296;-0.602;2023-04-01T17:46:56;100922.69;;;17.13;68.91
50356;BME280;36264;51.296;-0.602;2023-04-01T17:49:37;100936.22;;;16.40;69.31
50356;BME280;36264;51.296;-0.602;2023-04-01T18:02:45;100957.41;;;15.66;71.74
50356;BME280;36264;51.296;-0.602;2023-04-01T18:08:05;100972.09;;;15.68;71.50
50356;BME280;36264;51.296;-0.602;2023-04-01T18:27:01;101019.13;;;14.95;71.38
50356;BME280;36264;51.296;-0.602;2023-04-01T18:29:48;101013.88;;;14.95;69.19
50356;BME280;36264;51.296;-0.602;2023-04-01T18:40:32;101031.06;;;14.82;69.89
50356;BME280;36264;51.296;-0.602;2023-04-01T18:43:13;101035.38;;;14.83;68.38
50356;BME280;36264;51.296;-0.602;2023-04-01T18:45:56;101043.41;;;14.78;69.22
50356;BME280;36264;51.296;-0.602;2023-04-01T18:48:40;101054.63;;;14.39;69.04
50356;BME280;36264;51.296;-0.602;2023-04-01T18:53:58;101058.63;;;14.48;69.75
50356;BME280;36264;51.296;-0.602;2023-04-01T18:56:37;101065.53;;;14.49;69.90
50356;BME280;36264;51.296;-0.602;2023-04-01T19:04:40;101070.88;;;14.46;68.80
50356;BME280;36264;51.296;-0.602;2023-04-01T19:15:54;101091.25;;;13.95;69.95
50356;BME280;36264;51.296;-0.602;2023-04-01T19:26:45;101100.25;;;14.30;70.19
50356;BME280;36264;51.296;-0.602;2023-04-01T19:29:47;101103.50;;;14.37;69.85
50356;BME280;36264;51.296;-0.602;2023-04-01T19:32:32;101103.69;;;14.32;69.80
50356;BME280;36264;51.296;-0.602;2023-04-01T19:40:57;101114.91;;;14.35;70.03
50356;BME280;36264;51.296;-0.602;2023-04-01T19:43:34;101125.38;;;14.35;71.18
50356;BME280;36264;51.296;-0.602;2023-04-01T19:46:25;101131.03;;;14.02;70.57
50356;BME280;36264;51.296;-0.602;2023-04-01T19:54:10;101137.31;;;14.20;70.08
50356;BME280;36264;51.296;-0.602;2023-04-01T19:56:56;101150.59;;;14.13;71.49
50356;BME280;36264;51.296;-0.602;2023-04-01T19:59:36;101153.69;;;14.23;70.58
50356;BME280;36264;51.296;-0.602;2023-04-01T20:04:56;101166.81;;;14.22;70.67
50356;BME280;36264;51.296;-0.602;2023-04-01T20:07:39;101175.63;;;14.19;71.01
50356;BME280;36264;51.296;-0.602;2023-04-01T20:15:47;101176.72;;;14.36;71.28
50356;BME280;36264;51.296;-0.602;2023-04-01T20:18:20;101184.22;;;14.23;71.54
50356;BME280;36264;51.296;-0.602;2023-04-01T20:21:21;101191.88;;;14.27;71.32
50356;BME280;36264;51.296;-0.602;2023-04-01T20:24:04;101194.78;;;14.20;71.50
50356;BME280;36264;51.296;-0.602;2023-04-01T20:26:38;101207.47;;;14.29;71.71
50356;BME280;36264;51.296;-0.602;2023-04-01T20:45:45;101240.19;;;14.61;71.68
50356;BME280;36264;51.296;-0.602;2023-04-01T20:51:26;101264.28;;;14.24;73.97
50356;BME280;36264;51.296;-0.602;2023-04-01T20:57:04;101266.94;;;14.22;77.64
50356;BME280;36264;51.296;-0.602;2023-04-01T21:02:32;101288.22;;;14.11;79.45
50356;BME280;36264;51.296;-0.602;2023-04-01T21:21:15;101314.66;;;14.04;83.39
50356;BME280;36264;51.296;-0.602;2023-04-01T21:49:21;101351.66;;;14.40;82.68
50356;BME280;36264;51.296;-0.602;2023-04-01T22:04:56;101371.78;;;14.13;86.45
50356;BME280;36264;51.296;-0.602;2023-04-01T22:10:49;101388.53;;;14.07;87.77
50356;BME280;36264;51.296;-0.602;2023-04-01T22:13:41;101384.09;;;13.84;86.47
50356;BME280;36264;51.296;-0.602;2023-04-01T22:16:14;101387.47;;;13.63;86.62
50356;BME280;36264;51.296;-0.602;2023-04-01T22:18:52;101394.22;;;13.93;86.12
50356;BME280;36264;51.296;-0.602;2023-04-01T22:21:52;101397.38;;;14.03;85.41
50356;BME280;36264;51.296;-0.602;2023-04-01T22:27:08;101399.25;;;14.00;86.61
50356;BME280;36264;51.296;-0.602;2023-04-01T22:30:22;101409.53;;;14.04;85.47
50356;BME280;36264;51.296;-0.602;2023-04-01T22:46:58;101423.47;;;13.78;84.38
50356;BME280;36264;51.296;-0.602;2023-04-01T22:49:32;101426.09;;;14.03;83.65
50356;BME280;36264;51.296;-0.602;2023-04-01T22:52:17;101429.78;;;13.98;83.72
50356;BME280;36264;51.296;-0.602;2023-04-01T22:54:49;101435.03;;;13.98;83.97
50356;BME280;36264;51.296;-0.602;2023-04-01T23:00:11;101435.59;;;14.06;83.25
50356;BME280;36264;51.296;-0.602;2023-04-01T23:02:59;101450.47;;;14.04;83.13
50356;BME280;36264;51.296;-0.602;2023-04-01T23:05:26;101451.41;;;13.76;83.81
50356;BME280;36264;51.296;-0.602;2023-04-01T23:10:54;101467.03;;;14.03;82.45
50356;BME280;36264;51.296;-0.602;2023-04-01T23:13:35;101471.16;;;14.10;81.01
50356;BME280;36264;51.296;-0.602;2023-04-01T23:16:03;101472.97;;;13.81;81.32
50356;BME280;36264;51.296;-0.602;2023-04-01T23:18:52;101468.59;;;14.08;80.35
50356;BME280;36264;51.296;-0.602;2023-04-01T23:27:00;101480.06;;;14.29;79.09
50356;BME280;36264;51.296;-0.602;2023-04-01T23:29:29;101479.91;;;14.09;78.96
50356;BME280;36264;51.296;-0.602;2023-04-01T23:32:01;101481.13;;;14.24;79.34
50356;BME280;36264;51.296;-0.602;2023-04-01T23:34:35;101488.09;;;13.98;79.26
50356;BME280;36264;51.296;-0.602;2023-04-01T23:37:12;101497.94;;;14.42;78.01
50356;BME280;36264;51.296;-0.602;2023-04-01T23:39:40;101509.63;;;14.05;77.65
50356;BME280;36264;51.296;-0.602;2023-04-01T23:44:37;101509.63;;;14.05;77.73
50356;BME280;36264;51.296;-0.602;2023-04-01T23:47:04;101511.03;;;14.15;77.49
50356;BME280;36264;51.296;-0.602;2023-04-01T23:49:45;101520.31;;;14.24;77.46
50356;BME280;36264;51.296;-0.602;2023-04-01T23:55:22;101533.97;;;14.07;78.74
